Time;durP1;ratioP1;P1;durP2;ratioP2;P2;SDS_P1;SDS_P2;PMS_P1;PMS_P2;Temp;Humidity;BMP_temperature;BMP_pressure;BME280_temperature;BME280_humidity;BME280_pressure;Samples;Min_cycle;Max_cycle;Signal;HPM_P1;HPM_P2
2022/06/09 00:00:02;;;;;;;4.70;2.23;;;17.50;96.70;;;;;;5025252;28;20022;-74
2022/06/09 00:02:31;;;;;;;3.72;2.63;;;17.60;97.10;;;;;;5023667;28;20200;-74
2022/06/09 00:04:57;;;;;;;5.38;2.17;;;17.50;97.00;;;;;;5023689;28;20304;-74
2022/06/09 00:07:22;;;;;;;3.17;2.00;;;17.50;96.60;;;;;;5023982;28;20044;-74
2022/06/09 00:09:52;;;;;;;4.03;2.17;;;17.50;97.20;;;;;;5024838;28;20104;-74
2022/06/09 00:12:18;;;;;;;4.60;2.20;;;17.40;96.70;;;;;;5023918;28;20072;-74
2022/06/09 00:14:43;;;;;;;4.50;2.33;;;17.40;96.80;;;;;;5024786;28;20034;-74
2022/06/09 00:17:09;;;;;;;3.20;1.97;;;17.40;97.20;;;;;;5023672;28;20045;-74
2022/06/09 00:19:35;;;;;;;4.40;2.63;;;17.30;96.70;;;;;;5023759;28;20169;-74
2022/06/09 00:22:01;;;;;;;3.43;2.00;;;17.30;97.00;;;;;;5024718;28;20097;-74
2022/06/09 00:24:26;;;;;;;4.90;2.50;;;17.20;97.60;;;;;;5024517;28;20048;-74
2022/06/09 00:26:52;;;;;;;5.90;2.63;;;17.20;97.10;;;;;;5023919;28;20239;-74
2022/06/09 00:29:18;;;;;;;7.27;2.40;;;17.20;97.20;;;;;;5024668;28;20021;-74
2022/06/09 00:31:44;;;;;;;5.13;3.50;;;17.20;97.20;;;;;;5046684;22;20053;-72
2022/06/09 00:34:10;;;;;;;3.90;2.20;;;17.20;97.40;;;;;;5044322;28;20020;-72
2022/06/09 00:36:36;;;;;;;2.92;2.42;;;17.20;97.40;;;;;;5027533;28;20060;-72
2022/06/09 00:39:02;;;;;;;7.47;2.30;;;17.10;97.50;;;;;;5043853;28;20332;-71
2022/06/09 00:41:28;;;;;;;6.43;2.47;;;17.20;97.70;;;;;;5043999;28;20025;-71
2022/06/09 00:44:16;;;;;;;4.37;3.27;;;17.10;97.50;;;;;;5023158;28;20335;-71
2022/06/09 00:46:42;;;;;;;6.15;2.65;;;17.10;97.90;;;;;;5008665;28;20468;-71
2022/06/09 00:49:38;;;;;;;4.40;2.80;;;17.20;98.00;;;;;;5025094;28;20033;-71
2022/06/09 00:52:05;;;;;;;4.70;2.80;;;17.20;97.40;;;;;;4992124;28;20022;-71
2022/06/09 00:54:37;;;;;;;3.45;2.38;;;17.20;97.10;;;;;;4990828;28;20240;-71
2022/06/09 00:57:14;;;;;;;5.13;2.65;;;17.10;97.60;;;;;;5024885;28;20312;-72
2022/06/09 00:59:42;;;;;;;6.90;2.63;;;17.10;97.60;;;;;;4991669;28;20144;-71
2022/06/09 01:02:08;;;;;;;5.93;3.17;;;17.10;97.70;;;;;;5014305;28;20026;-71
2022/06/09 01:04:34;;;;;;;4.90;3.05;;;17.10;97.90;;;;;;5034133;28;20038;-71
2022/06/09 01:07:12;;;;;;;4.50;2.90;;;17.00;97.60;;;;;;5044580;28;20034;-72
2022/06/09 01:09:37;;;;;;;4.97;2.53;;;17.00;97.80;;;;;;5023242;28;20022;-71
2022/06/09 01:12:20;;;;;;;7.60;3.13;;;17.00;97.50;;;;;;5024522;28;20026;-71
2022/06/09 01:14:46;;;;;;;5.07;2.60;;;17.00;98.00;;;;;;5007301;28;20047;-71
2022/06/09 01:17:38;;;;;;;2.90;2.60;;;17.00;97.50;;;;;;5006770;28;20079;-72
2022/06/09 01:20:36;;;;;;;4.05;2.47;;;17.00;97.60;;;;;;5011549;28;20034;-72
2022/06/09 01:23:39;;;;;;;4.80;2.83;;;17.00;97.70;;;;;;4991753;28;20021;-72
2022/06/09 01:26:58;;;;;;;6.63;3.25;;;16.90;97.70;;;;;;5032498;28;20024;-71
2022/06/09 01:29:49;;;;;;;4.43;3.28;;;16.70;97.80;;;;;;5012448;28;20213;-72
2022/06/09 01:32:30;;;;;;;4.03;2.90;;;16.70;98.00;;;;;;5026383;28;20079;-72
2022/06/09 01:35:14;;;;;;;5.35;2.80;;;16.70;98.20;;;;;;5025902;28;20021;-71
2022/06/09 01:37:46;;;;;;;4.00;2.72;;;16.70;98.40;;;;;;5027858;28;20022;-71
2022/06/09 01:40:14;;;;;;;5.72;3.38;;;16.70;98.10;;;;;;5010151;28;20215;-72
2022/06/09 01:42:43;;;;;;;6.00;3.72;;;16.80;98.30;;;;;;5025820;28;20083;-72
2022/06/09 01:45:22;;;;;;;5.32;3.30;;;16.70;98.20;;;;;;5026345;28;20028;-72
2022/06/09 01:48:05;;;;;;;5.35;4.10;;;16.70;98.20;;;;;;5027569;28;20025;-72
2022/06/09 01:50:42;;;;;;;4.00;3.30;;;16.60;98.30;;;;;;5026206;28;20067;-72
2022/06/09 01:53:17;;;;;;;;;;;16.70;98.50;;;;;;5027679;28;20021;-72
2022/06/09 01:55:56;;;;;;;5.32;3.15;;;16.70;98.50;;;;;;5026801;28;19952;-72
2022/06/09 01:58:25;;;;;;;5.18;3.67;;;16.70;98.10;;;;;;5007542;28;20021;-72
2022/06/09 02:00:51;;;;;;;6.68;3.35;;;16.70;98.40;;;;;;5009317;28;20373;-72
2022/06/09 02:03:24;;;;;;;5.10;3.17;;;16.70;98.10;;;;;;5025242;28;20029;-72
2022/06/09 02:05:51;;;;;;;4.88;3.63;;;16.70;98.30;;;;;;5017393;28;20215;-72
2022/06/09 02:08:21;;;;;;;5.93;3.30;;;16.70;98.50;;;;;;5008041;28;20018;-72
2022/06/09 02:10:55;;;;;;;6.20;3.90;;;16.70;98.00;;;;;;5009092;28;20301;-72
2022/06/09 02:13:29;;;;;;;4.70;3.17;;;16.50;98.00;;;;;;5025165;28;20444;-72
2022/06/09 02:15:59;;;;;;;6.25;3.78;;;16.30;98.60;;;;;;5007616;28;20034;-72
2022/06/09 02:18:28;;;;;;;5.22;3.70;;;16.20;98.70;;;;;;5025638;28;20092;-72
2022/06/09 02:21:01;;;;;;;7.68;4.07;;;16.30;98.90;;;;;;5042179;28;20051;-72
2022/06/09 02:23:27;;;;;;;5.63;3.78;;;16.30;98.50;;;;;;5025246;28;20024;-72
2022/06/09 02:26:09;;;;;;;6.07;4.07;;;16.30;98.60;;;;;;5041501;28;20022;-72
2022/06/09 02:28:35;;;;;;;7.95;3.70;;;16.30;98.80;;;;;;5043188;28;20088;-72
2022/06/09 02:31:02;;;;;;;7.90;4.97;;;16.30;99.00;;;;;;5043050;28;20033;-72
2022/06/09 02:33:28;;;;;;;;;;;16.30;98.60;;;;;;5025624;28;20029;-71
2022/06/09 02:35:53;;;;;;;4.55;3.88;;;16.20;98.80;;;;;;5021286;28;20258;-72
2022/06/09 02:38:20;;;;;;;4.50;4.10;;;16.20;98.80;;;;;;5003809;28;20087;-72
2022/06/09 02:40:46;;;;;;;;;;;16.20;99.20;;;;;;5006357;28;20092;-71
2022/06/09 02:43:13;;;;;;;5.18;3.72;;;16.30;99.40;;;;;;5021670;28;20119;-72
2022/06/09 02:45:39;;;;;;;4.55;3.72;;;16.30;99.10;;;;;;5023026;28;20359;-71
2022/06/09 02:48:05;;;;;;;6.88;4.45;;;16.30;99.20;;;;;;5005774;28;20256;-71
2022/06/09 02:50:31;;;;;;;5.07;4.15;;;16.30;98.90;;;;;;5023087;28;20128;-71
2022/06/09 02:52:58;;;;;;;9.20;5.45;;;16.30;98.80;;;;;;5022327;28;20026;-72
2022/06/09 02:55:24;;;;;;;5.38;3.47;;;16.20;98.80;;;;;;4989234;28;20085;-72
2022/06/09 02:57:50;;;;;;;6.77;4.50;;;16.20;99.00;;;;;;5005428;28;20037;-72
2022/06/09 03:00:16;;;;;;;5.30;4.03;;;16.20;99.10;;;;;;5022906;28;20018;-72
2022/06/09 03:02:59;;;;;;;7.77;3.70;;;16.10;98.90;;;;;;5022578;28;20212;-72
2022/06/09 03:05:25;;;;;;;5.70;3.72;;;16.20;99.00;;;;;;5005850;28;20257;-72
2022/06/09 03:07:51;;;;;;;6.97;3.85;;;16.10;99.30;;;;;;5024747;28;20087;-72
2022/06/09 03:10:17;;;;;;;5.50;3.13;;;16.10;98.90;;;;;;5025014;28;20033;-72
2022/06/09 03:12:43;;;;;;;5.83;3.03;;;16.10;99.10;;;;;;5024647;28;20025;-72
2022/06/09 03:15:11;;;;;;;3.73;2.97;;;16.20;99.00;;;;;;5024964;28;20030;-72
2022/06/09 03:17:37;;;;;;;4.32;3.30;;;16.20;99.40;;;;;;5008448;28;20332;-72
2022/06/09 03:20:05;;;;;;;3.23;2.90;;;16.20;98.90;;;;;;5024846;28;20104;-72
2022/06/09 03:22:32;;;;;;;4.65;2.90;;;16.30;98.90;;;;;;5025053;28;20022;-72
2022/06/09 03:24:58;;;;;;;5.07;3.00;;;16.30;99.00;;;;;;5024948;28;20029;-72
2022/06/09 03:27:24;;;;;;;5.03;3.33;;;16.30;98.60;;;;;;5041603;28;20057;-72
2022/06/09 03:29:50;;;;;;;4.17;3.57;;;16.20;98.60;;;;;;5024903;28;20029;-72
2022/06/09 03:32:16;;;;;;;8.73;3.60;;;16.20;99.10;;;;;;5042154;28;20087;-72
2022/06/09 03:34:42;;;;;;;5.67;3.50;;;16.20;98.50;;;;;;5024394;28;20031;-72
2022/06/09 03:37:07;;;;;;;5.93;3.40;;;16.20;98.60;;;;;;5041338;28;20025;-72
2022/06/09 03:39:33;;;;;;;4.27;3.50;;;16.20;98.90;;;;;;5024772;28;20027;-72
2022/06/09 03:41:59;;;;;;;3.50;3.20;;;16.20;99.00;;;;;;5024628;28;20036;-72
2022/06/09 03:44:25;;;;;;;7.03;3.53;;;16.20;99.00;;;;;;5042017;28;20321;-72
2022/06/09 03:46:50;;;;;;;4.20;3.40;;;16.20;98.90;;;;;;5020528;28;20022;-72
2022/06/09 03:49:16;;;;;;;4.63;3.60;;;16.20;98.80;;;;;;5004884;28;20025;-72
2022/06/09 03:51:42;;;;;;;5.30;3.83;;;16.20;99.00;;;;;;5004605;28;20022;-72
2022/06/09 03:54:08;;;;;;;5.67;4.13;;;16.20;98.80;;;;;;5022089;28;20022;-72
2022/06/09 03:56:33;;;;;;;3.70;2.97;;;16.20;99.00;;;;;;5021263;28;20025;-71
2022/06/09 03:58:59;;;;;;;6.43;3.50;;;16.20;98.80;;;;;;5021248;28;20030;-72
2022/06/09 04:01:25;;;;;;;5.17;4.03;;;16.20;98.90;;;;;;5028787;28;20025;-70
2022/06/09 04:03:51;;;;;;;6.03;4.53;;;16.10;99.00;;;;;;5040742;28;20048;-70
2022/06/09 04:06:22;;;;;;;5.77;4.17;;;16.10;99.00;;;;;;5040920;28;20075;-70
2022/06/09 04:08:48;;;;;;;9.05;3.35;;;16.10;99.30;;;;;;5040914;28;20041;-70
2022/06/09 04:11:15;;;;;;;;;;;16.20;99.00;;;;;;5041241;28;20032;-70
2022/06/09 04:13:41;;;;;;;4.63;3.60;;;16.20;99.40;;;;;;5024138;28;19905;-70
2022/06/09 04:16:27;;;;;;;4.20;3.80;;;16.30;98.80;;;;;;5040909;28;20402;-70
2022/06/09 04:18:55;;;;;;;5.90;3.80;;;16.20;98.90;;;;;;5027973;28;20044;-70
2022/06/09 04:21:21;;;;;;;5.25;4.25;;;16.10;99.50;;;;;;5027931;28;20381;-70
2022/06/09 04:23:46;;;;;;;6.90;3.93;;;16.10;99.00;;;;;;5045156;28;20025;-70
2022/06/09 04:26:18;;;;;;;4.83;4.37;;;16.20;99.30;;;;;;5027269;28;20064;-70
2022/06/09 04:28:44;;;;;;;8.43;4.47;;;16.10;99.10;;;;;;5026582;28;20044;-70
2022/06/09 04:31:11;;;;;;;16.27;6.38;;;16.20;99.30;;;;;;5042688;28;20025;-70
2022/06/09 04:33:36;;;;;;;7.93;5.03;;;16.10;99.30;;;;;;5019251;28;20051;-70
2022/06/09 04:36:04;;;;;;;5.10;4.23;;;16.10;99.30;;;;;;5043647;28;20044;-70
2022/06/09 04:38:29;;;;;;;6.20;4.35;;;16.10;99.20;;;;;;5044802;28;20324;-73
2022/06/09 04:40:56;;;;;;;4.40;4.00;;;16.10;99.20;;;;;;5044010;28;20025;-75
2022/06/09 04:43:21;;;;;;;5.30;4.43;;;16.00;99.20;;;;;;5023012;28;20026;-71
2022/06/09 04:45:47;;;;;;;5.47;4.53;;;16.10;99.40;;;;;;5043885;28;20084;-73
2022/06/09 04:48:13;;;;;;;5.07;4.57;;;16.20;99.20;;;;;;5043886;28;20029;-74
2022/06/09 04:50:39;;;;;;;7.70;3.93;;;16.20;99.60;;;;;;5027214;28;20021;-82
2022/06/09 04:53:07;;;;;;;6.88;4.80;;;16.20;99.30;;;;;;5007836;28;20030;-82
2022/06/09 04:55:33;;;;;;;7.65;4.43;;;16.20;99.40;;;;;;5024629;28;20033;-82
2022/06/09 04:57:59;;;;;;;8.35;4.90;;;16.30;99.30;;;;;;5011510;28;20037;-80
2022/06/09 05:00:26;;;;;;;5.67;4.43;;;16.30;99.50;;;;;;5042776;28;20029;-74
2022/06/09 05:02:53;;;;;;;4.95;4.20;;;16.30;99.20;;;;;;5043357;28;20029;-74
2022/06/09 05:05:22;;;;;;;6.10;4.47;;;16.30;99.00;;;;;;5044617;28;20084;-74
2022/06/09 05:07:48;;;;;;;8.15;4.20;;;16.30;99.50;;;;;;5026962;28;20049;-76
2022/06/09 05:10:13;;;;;;;5.00;4.47;;;16.30;99.20;;;;;;5043278;28;20201;-71
2022/06/09 05:12:39;;;;;;;8.43;4.83;;;16.30;99.60;;;;;;5044022;28;20107;-72
2022/06/09 05:15:06;;;;;;;5.17;4.60;;;16.40;99.20;;;;;;5044087;28;20045;-72
2022/06/09 05:17:31;;;;;;;5.85;4.05;;;16.40;99.10;;;;;;5042959;28;20029;-70
2022/06/09 05:19:57;;;;;;;5.73;4.33;;;16.50;99.40;;;;;;5042118;28;20327;-71
2022/06/09 05:22:23;;;;;;;5.87;4.83;;;16.50;99.10;;;;;;5042557;28;20346;-72
2022/06/09 05:24:49;;;;;;;7.70;4.67;;;16.50;99.00;;;;;;5036415;28;20240;-72
2022/06/09 05:27:14;;;;;;;6.70;4.27;;;16.60;99.00;;;;;;5043336;28;20080;-74
2022/06/09 05:29:41;;;;;;;8.33;4.23;;;16.60;98.80;;;;;;5044034;28;20032;-70
2022/06/09 05:32:08;;;;;;;8.23;4.30;;;16.70;98.80;;;;;;5026528;28;20092;-69
2022/06/09 05:34:34;;;;;;;6.95;4.22;;;16.70;99.00;;;;;;5026429;28;20311;-69
2022/06/09 05:37:00;;;;;;;7.73;4.67;;;16.90;98.80;;;;;;5044038;28;20053;-69
2022/06/09 05:44:56;;;;;;;5.72;5.10;;;17.00;98.50;;;;;;5028984;28;20234;-69
2022/06/09 05:47:23;;;;;;;9.90;5.07;;;17.10;98.40;;;;;;5043985;28;20028;-69
2022/06/09 05:49:50;;;;;;;5.40;3.92;;;17.10;98.50;;;;;;5026476;28;20100;-69
2022/06/09 05:52:18;;;;;;;6.53;4.63;;;17.20;98.40;;;;;;5026181;28;20025;-70
2022/06/09 05:54:44;;;;;;;8.70;5.28;;;17.30;98.10;;;;;;5025984;28;20339;-70
2022/06/09 05:57:10;;;;;;;7.50;5.10;;;17.30;97.30;;;;;;5043267;28;20029;-69
2022/06/09 05:59:37;;;;;;;5.80;5.07;;;17.30;97.50;;;;;;5043260;28;20033;-69
2022/06/09 06:02:04;;;;;;;;;;;17.30;97.70;;;;;;5026700;28;20269;-69
2022/06/09 06:04:30;;;;;;;6.87;5.00;;;17.30;97.60;;;;;;5009498;28;20242;-69
2022/06/09 06:06:55;;;;;;;6.93;4.50;;;17.30;98.20;;;;;;5043768;28;20080;-69
2022/06/09 06:09:21;;;;;;;7.83;4.87;;;17.30;97.60;;;;;;5043496;28;20022;-69
2022/06/09 06:11:47;;;;;;;4.70;4.30;;;17.30;97.80;;;;;;5025836;28;20029;-69
2022/06/09 06:14:14;;;;;;;6.25;4.75;;;17.20;97.20;;;;;;5043387;28;20025;-69
2022/06/09 06:16:40;;;;;;;6.72;4.90;;;17.20;97.50;;;;;;5026295;28;20025;-69
2022/06/09 06:19:07;;;;;;;6.53;4.97;;;17.10;97.50;;;;;;5025956;28;20026;-70
2022/06/09 06:21:34;;;;;;;6.30;4.07;;;17.10;97.20;;;;;;5043293;28;20017;-70
2022/06/09 06:24:00;;;;;;;8.40;4.22;;;17.20;97.40;;;;;;5025451;28;20036;-69
2022/06/09 06:26:26;;;;;;;5.07;4.23;;;17.20;97.30;;;;;;5042774;28;20096;-74
2022/06/09 06:28:52;;;;;;;4.90;3.80;;;17.20;97.10;;;;;;5025284;28;20063;-74
2022/06/09 06:31:18;;;;;;;4.70;3.73;;;17.20;96.70;;;;;;5025416;28;20031;-74
2022/06/09 06:33:43;;;;;;;7.60;3.80;;;17.10;96.70;;;;;;5051041;22;20046;-74
2022/06/09 06:36:09;;;;;;;4.77;3.77;;;17.10;96.90;;;;;;5022081;28;20052;-74
2022/06/09 06:38:37;;;;;;;5.37;3.00;;;17.00;96.90;;;;;;5022288;28;20033;-73
2022/06/09 06:41:08;;;;;;;4.40;3.15;;;17.10;96.00;;;;;;5022721;28;20029;-73
2022/06/09 06:43:34;;;;;;;4.57;2.78;;;17.20;96.40;;;;;;5041744;28;20017;-74
2022/06/09 06:46:01;;;;;;;6.38;3.50;;;17.30;97.00;;;;;;5041809;28;20017;-74
2022/06/09 06:48:27;;;;;;;7.80;2.97;;;17.20;95.90;;;;;;5007742;28;20029;-73
2022/06/09 06:50:52;;;;;;;3.30;2.73;;;17.10;95.90;;;;;;5023959;28;20115;-73
2022/06/09 06:53:18;;;;;;;8.60;3.30;;;17.30;96.60;;;;;;5006739;28;20029;-74
2022/06/09 06:55:44;;;;;;;5.70;3.00;;;17.40;96.30;;;;;;5023880;28;20463;-73
2022/06/09 06:58:10;;;;;;;6.23;2.80;;;17.50;95.20;;;;;;5021832;28;20331;-73
2022/06/09 07:00:37;;;;;;;;;;;17.50;96.10;;;;;;5022144;28;20046;-73
2022/06/09 07:03:03;;;;;;;7.10;2.72;;;17.50;95.30;;;;;;5003713;28;19959;-74
2022/06/09 07:05:29;;;;;;;4.47;2.83;;;17.50;94.60;;;;;;4988215;28;20048;-74
2022/06/09 07:07:56;;;;;;;5.60;2.63;;;17.60;95.30;;;;;;4988035;28;20034;-74
2022/06/09 07:10:22;;;;;;;6.03;2.70;;;17.60;94.90;;;;;;5004578;28;20327;-74
2022/06/09 07:12:48;;;;;;;4.03;2.58;;;17.70;94.60;;;;;;4987433;28;20033;-74
2022/06/09 07:15:14;;;;;;;4.83;2.50;;;17.70;94.80;;;;;;5004022;28;20030;-74
2022/06/09 07:17:40;;;;;;;7.15;3.03;;;17.80;94.60;;;;;;5003981;28;20068;-74
2022/06/09 07:20:07;;;;;;;4.80;2.53;;;17.90;94.60;;;;;;5004214;28;20034;-74
2022/06/09 07:22:33;;;;;;;5.20;2.33;;;17.90;94.50;;;;;;4988077;28;20336;-74
2022/06/09 07:24:59;;;;;;;5.33;2.30;;;17.90;93.70;;;;;;5003888;28;20064;-74
2022/06/09 07:27:25;;;;;;;4.07;2.33;;;17.90;94.40;;;;;;5025284;28;20017;-74
2022/06/09 07:29:51;;;;;;;7.50;2.75;;;17.80;93.90;;;;;;5040173;28;20028;-74
2022/06/09 07:32:17;;;;;;;5.20;2.97;;;17.80;94.30;;;;;;5023704;28;20034;-73
2022/06/09 07:34:42;;;;;;;3.50;2.53;;;17.70;94.10;;;;;;5005971;28;20059;-73
2022/06/09 07:37:09;;;;;;;6.30;2.17;;;17.70;93.90;;;;;;5041224;28;20092;-74
2022/06/09 07:39:34;;;;;;;6.80;2.42;;;17.60;94.00;;;;;;5041156;28;20029;-74
2022/06/09 07:42:00;;;;;;;5.50;2.43;;;17.40;94.00;;;;;;5023650;28;20026;-73
2022/06/09 07:44:26;;;;;;;6.13;3.33;;;17.50;94.40;;;;;;5023394;28;20093;-74
2022/06/09 07:46:52;;;;;;;5.20;2.47;;;17.40;94.50;;;;;;5023768;28;20168;-74
2022/06/09 07:49:17;;;;;;;5.00;1.97;;;17.50;94.20;;;;;;5040944;28;20033;-73
2022/06/09 07:51:43;;;;;;;5.53;2.17;;;17.60;93.50;;;;;;5043571;28;20031;-74
2022/06/09 07:54:09;;;;;;;5.80;2.57;;;17.60;92.60;;;;;;5045191;28;20328;-74
2022/06/09 07:56:35;;;;;;;4.97;2.03;;;17.70;92.40;;;;;;5027831;28;20026;-74
2022/06/09 07:59:02;;;;;;;2.67;1.77;;;17.80;92.60;;;;;;5045369;28;20025;-74
2022/06/09 08:01:29;;;;;;;6.78;2.05;;;17.90;92.40;;;;;;4990513;28;20025;-73
2022/06/09 08:03:56;;;;;;;5.32;2.30;;;18.00;91.30;;;;;;5001797;28;20033;-74
2022/06/09 08:06:22;;;;;;;5.57;1.70;;;18.00;92.90;;;;;;5011202;28;20021;-74
2022/06/09 08:08:48;;;;;;;3.58;1.77;;;18.00;91.30;;;;;;5044936;28;20033;-73
2022/06/09 08:11:14;;;;;;;;;;;17.80;90.90;;;;;;5011268;28;20029;-73
2022/06/09 08:13:40;;;;;;;2.45;1.23;;;17.80;90.90;;;;;;5044342;28;20226;-72
2022/06/09 08:16:06;;;;;;;4.70;2.23;;;17.90;90.60;;;;;;5044546;28;20209;-71
2022/06/09 08:18:32;;;;;;;3.63;1.52;;;18.00;90.80;;;;;;5026895;28;20036;-72
2022/06/09 08:20:58;;;;;;;4.60;2.00;;;18.10;90.60;;;;;;5010562;28;20044;-72
2022/06/09 08:23:25;;;;;;;4.73;1.53;;;18.20;89.90;;;;;;5044443;28;20080;-72
2022/06/09 08:25:54;;;;;;;5.30;1.80;;;18.30;89.60;;;;;;5027066;28;20021;-72
2022/06/09 08:28:21;;;;;;;5.60;1.63;;;18.40;89.10;;;;;;5025833;28;20048;-72
2022/06/09 08:30:49;;;;;;;5.20;1.50;;;18.40;88.80;;;;;;5044532;28;20025;-72
2022/06/09 08:33:14;;;;;;;2.05;1.30;;;18.40;89.10;;;;;;5026521;28;20336;-71
2022/06/09 08:35:40;;;;;;;3.97;1.63;;;18.50;88.30;;;;;;5044369;28;20088;-71
2022/06/09 08:38:07;;;;;;;7.33;2.00;;;18.60;87.60;;;;;;5014998;28;20068;-71
2022/06/09 08:41:08;;;;;;;8.13;2.03;;;18.50;89.10;;;;;;4991039;28;20312;-71
2022/06/09 08:44:18;;;;;;;4.28;1.95;;;18.50;89.70;;;;;;5003400;28;20339;-72
2022/06/09 08:47:07;;;;;;;2.75;1.40;;;18.60;90.10;;;;;;4983394;28;20026;-72
2022/06/09 08:50:02;;;;;;;5.10;1.70;;;18.50;85.70;;;;;;4967325;28;20217;-71
2022/06/09 08:52:47;;;;;;;6.00;2.20;;;18.50;85.80;;;;;;4985078;28;20038;-71
2022/06/09 08:55:33;;;;;;;3.22;1.40;;;18.50;87.00;;;;;;4987235;28;20032;-72
2022/06/09 08:58:14;;;;;;;4.60;1.40;;;18.50;85.10;;;;;;4988055;28;20030;-71
2022/06/09 09:01:10;;;;;;;2.92;1.40;;;18.50;87.50;;;;;;4988596;28;20209;-71
2022/06/09 09:03:49;;;;;;;3.60;1.40;;;18.50;86.00;;;;;;4982251;28;20346;-71
2022/06/09 09:06:42;;;;;;;3.25;1.45;;;18.50;86.20;;;;;;4970641;28;20014;-71
2022/06/09 09:09:26;;;;;;;5.53;1.90;;;18.60;84.60;;;;;;5001057;28;20033;-71
2022/06/09 09:12:25;;;;;;;3.92;1.30;;;18.40;84.80;;;;;;4999687;28;20022;-72
2022/06/09 09:15:28;;;;;;;7.07;2.10;;;18.40;84.90;;;;;;5010088;28;20108;-71
2022/06/09 09:18:30;;;;;;;6.18;1.73;;;18.40;85.00;;;;;;5043606;28;20028;-71
2022/06/09 09:21:20;;;;;;;2.75;1.25;;;18.50;84.60;;;;;;5013272;28;20017;-72
2022/06/09 09:24:09;;;;;;;4.05;1.60;;;18.60;87.00;;;;;;5025600;28;20020;-71
2022/06/09 09:27:23;;;;;;;3.17;1.50;;;18.70;83.90;;;;;;5012535;28;20022;-71
2022/06/09 09:30:17;;;;;;;3.70;1.05;;;18.70;84.00;;;;;;5030046;28;20057;-72
2022/06/09 09:32:49;;;;;;;7.22;1.65;;;18.70;83.60;;;;;;5025305;28;20033;-71
2022/06/09 09:35:49;;;;;;;3.90;1.52;;;18.70;82.60;;;;;;5025809;28;20026;-71
2022/06/09 09:38:17;;;;;;;2.95;1.40;;;18.80;83.30;;;;;;5017412;28;20212;-72
2022/06/09 09:40:49;;;;;;;4.22;1.20;;;18.60;83.20;;;;;;5043209;28;20071;-71
2022/06/09 09:43:32;;;;;;;4.40;1.05;;;18.70;84.60;;;;;;5008277;28;20251;-71
2022/06/09 09:45:58;;;;;;;3.78;1.58;;;18.90;85.60;;;;;;5025556;28;20028;-71
2022/06/09 09:48:24;;;;;;;6.87;1.63;;;19.00;83.70;;;;;;5008926;28;20021;-71
2022/06/09 09:51:13;;;;;;;4.13;1.47;;;19.00;83.20;;;;;;5043027;28;20021;-71
2022/06/09 09:53:47;;;;;;;3.13;1.15;;;19.00;83.30;;;;;;5009771;28;20028;-71
2022/06/09 09:56:32;;;;;;;3.75;1.15;;;18.90;84.10;;;;;;5042909;28;20322;-71
2022/06/09 09:58:59;;;;;;;1.50;0.93;;;18.80;82.90;;;;;;4992456;28;20037;-71
2022/06/09 10:01:32;;;;;;;;;;;18.80;83.00;;;;;;5002570;28;20026;-71
2022/06/09 10:10:13;;;;;;;3.42;1.40;;;19.00;82.30;;;;;;5007799;28;20380;-71
2022/06/09 10:12:39;;;;;;;2.00;1.10;;;19.10;82.80;;;;;;4988469;28;20212;-71
2022/06/09 10:15:11;;;;;;;6.43;2.43;;;19.00;81.90;;;;;;4971532;28;20029;-71
2022/06/09 10:18:01;;;;;;;3.28;1.20;;;19.10;83.00;;;;;;5022458;28;20026;-71
2022/06/09 10:20:37;;;;;;;5.35;1.40;;;19.30;83.30;;;;;;5031365;28;20021;-72
2022/06/09 10:23:17;;;;;;;6.55;1.33;;;19.50;86.10;;;;;;5041760;28;20024;-71
2022/06/09 10:26:10;;;;;;;8.15;1.30;;;19.60;82.20;;;;;;5042122;28;20208;-72
2022/06/09 10:29:06;;;;;;;2.85;0.88;;;19.60;81.70;;;;;;5006977;28;20029;-71
2022/06/09 10:31:59;;;;;;;2.92;0.90;;;19.50;75.00;;;;;;5024335;28;20105;-71
2022/06/09 10:35:06;;;;;;;3.95;1.67;;;19.60;77.20;;;;;;5040389;28;20057;-71
2022/06/09 10:37:56;;;;;;;3.40;1.10;;;19.50;78.20;;;;;;5009192;28;20320;-72
2022/06/09 10:40:31;;;;;;;6.22;1.50;;;19.50;79.20;;;;;;5010485;28;20101;-72
2022/06/09 10:43:10;;;;;;;4.55;1.27;;;19.50;79.50;;;;;;5023108;28;20025;-72
2022/06/09 10:46:26;;;;;;;3.42;1.00;;;19.50;79.80;;;;;;5009250;28;20204;-72
2022/06/09 10:55:30;;;;;;;5.65;1.50;;;18.90;81.20;;;;;;5015496;28;20414;-72
2022/06/09 10:58:31;;;;;;;2.70;1.02;;;18.60;80.30;;;;;;5023669;28;20030;-72
2022/06/09 11:00:57;;;;;;;2.47;1.30;;;18.70;81.10;;;;;;5009384;28;20029;-72
2022/06/09 11:03:28;;;;;;;3.15;1.15;;;18.70;80.80;;;;;;4968419;28;20019;-72
2022/06/09 11:06:12;;;;;;;2.75;1.15;;;18.80;81.90;;;;;;4968614;28;20022;-72
2022/06/09 11:09:06;;;;;;;3.42;1.50;;;18.80;82.20;;;;;;4984632;28;20030;-72
2022/06/09 11:12:24;;;;;;;4.57;1.10;;;18.90;81.90;;;;;;5001925;28;20022;-72
2022/06/09 11:14:58;;;;;;;2.58;0.90;;;19.00;80.10;;;;;;5008685;28;20044;-72
2022/06/09 11:17:55;;;;;;;3.38;1.52;;;19.10;78.30;;;;;;5023652;28;20377;-72
2022/06/09 11:20:47;;;;;;;2.97;1.13;;;19.10;78.70;;;;;;5040917;28;20355;-72
2022/06/09 11:23:34;;;;;;;5.55;1.10;;;19.30;77.70;;;;;;5008872;28;20021;-72
2022/06/09 11:26:11;;;;;;;3.78;1.45;;;19.40;75.30;;;;;;5042317;28;20276;-72
2022/06/09 11:28:37;;;;;;;4.05;0.93;;;19.40;75.50;;;;;;5044511;28;20021;-71
2022/06/09 11:31:24;;;;;;;16.63;2.17;;;19.40;75.10;;;;;;5045062;28;20048;-72
2022/06/09 11:34:22;;;;;;;5.40;1.30;;;19.40;74.70;;;;;;5045005;28;20132;-72
2022/06/09 11:37:06;;;;;;;3.45;1.20;;;19.40;75.50;;;;;;5028156;28;20048;-71
2022/06/09 11:39:53;;;;;;;2.72;1.08;;;19.50;76.70;;;;;;5028090;28;20041;-71
2022/06/09 11:42:27;;;;;;;3.35;1.23;;;19.70;78.60;;;;;;5011766;28;20127;-71
2022/06/09 11:44:53;;;;;;;2.78;0.90;;;19.90;76.50;;;;;;5026522;28;20132;-67
2022/06/09 11:47:21;;;;;;;4.75;1.40;;;20.00;76.90;;;;;;5045247;28;20232;-67
2022/06/09 11:49:55;;;;;;;12.05;2.15;;;20.00;78.30;;;;;;5011417;28;20022;-68
2022/06/09 11:52:35;;;;;;;4.18;1.85;;;20.00;77.30;;;;;;5027444;28;20048;-67
2022/06/09 11:55:59;;;;;;;5.47;1.60;;;20.10;75.30;;;;;;5011852;28;20324;-67
2022/06/09 11:58:37;;;;;;;5.15;1.70;;;20.10;75.40;;;;;;5010149;28;20089;-67
2022/06/09 12:01:30;;;;;;;3.03;1.20;;;20.10;75.70;;;;;;5024749;28;20185;-67
2022/06/09 12:04:42;;;;;;;5.90;1.65;;;20.10;76.20;;;;;;4990912;28;20018;-67
2022/06/09 12:07:21;;;;;;;2.28;1.05;;;20.20;75.70;;;;;;4993312;28;20084;-67
2022/06/09 12:10:20;;;;;;;3.35;1.42;;;20.20;76.50;;;;;;4987897;28;20274;-67
2022/06/09 12:13:03;;;;;;;3.08;1.30;;;20.20;76.10;;;;;;5004925;28;20018;-67
2022/06/09 12:15:32;;;;;;;5.25;1.23;;;20.20;75.40;;;;;;4995809;28;20049;-67
2022/06/09 12:18:03;;;;;;;3.42;1.30;;;20.30;76.80;;;;;;4991182;28;20021;-67
2022/06/09 12:20:46;;;;;;;3.95;1.45;;;20.40;77.00;;;;;;5024848;28;20281;-66
2022/06/09 12:23:25;;;;;;;2.42;1.30;;;20.50;79.80;;;;;;5024345;28;20021;-67
2022/06/09 12:26:09;;;;;;;4.30;1.77;;;20.70;80.80;;;;;;5024630;28;20018;-66
2022/06/09 12:28:53;;;;;;;3.05;1.40;;;20.70;77.30;;;;;;5023626;28;20116;-67
2022/06/09 12:31:20;;;;;;;2.92;1.30;;;20.80;74.90;;;;;;5024533;28;20022;-68
2022/06/09 12:34:00;;;;;;;3.22;1.30;;;20.80;73.50;;;;;;5045489;23;20056;-67
2022/06/09 12:36:38;;;;;;;4.25;2.03;;;20.70;74.20;;;;;;5032053;28;20040;-67
2022/06/09 12:39:30;;;;;;;4.65;1.15;;;20.80;76.30;;;;;;5039030;28;20197;-67
2022/06/09 12:42:05;;;;;;;2.95;1.50;;;21.00;72.60;;;;;;5040871;28;20030;-67
2022/06/09 12:44:45;;;;;;;3.53;1.38;;;21.10;73.30;;;;;;5025114;28;20028;-67
2022/06/09 12:47:17;;;;;;;5.25;1.08;;;21.00;69.30;;;;;;5008645;28;20022;-66
2022/06/09 12:49:48;;;;;;;2.35;0.90;;;21.20;69.90;;;;;;5008170;28;20028;-66
2022/06/09 12:52:45;;;;;;;4.57;1.02;;;21.30;69.50;;;;;;5025397;28;20022;-67
2022/06/09 12:55:29;;;;;;;4.20;0.93;;;21.40;68.60;;;;;;4992860;28;20371;-67
2022/06/09 12:58:24;;;;;;;3.70;1.20;;;21.50;67.30;;;;;;5007517;28;20089;-67
2022/06/09 13:00:55;;;;;;;3.17;1.20;;;21.60;68.60;;;;;;5009184;28;20377;-67
2022/06/09 13:03:34;;;;;;;2.35;0.80;;;21.70;71.20;;;;;;5030654;28;20315;-67
2022/06/09 13:06:21;;;;;;;2.17;1.02;;;21.90;71.70;;;;;;5044806;28;20018;-67
2022/06/09 13:08:51;;;;;;;2.15;1.25;;;21.90;67.00;;;;;;5026727;28;20196;-67
2022/06/09 13:14:22;;;;;;;9.70;1.80;;;21.90;70.20;;;;;;4996139;28;20025;-67
2022/06/09 13:16:54;;;;;;;2.03;0.90;;;21.90;69.20;;;;;;5007677;28;20032;-67
2022/06/09 13:19:21;;;;;;;4.65;1.00;;;21.80;66.00;;;;;;4991435;28;20058;-70
2022/06/09 13:21:48;;;;;;;6.78;1.35;;;21.60;69.70;;;;;;4975062;28;20025;-71
2022/06/09 13:24:35;;;;;;;3.50;1.10;;;21.60;69.00;;;;;;4990705;28;20022;-70
2022/06/09 13:27:02;;;;;;;2.27;1.20;;;21.60;67.70;;;;;;4991734;28;20026;-71
2022/06/09 13:29:37;;;;;;;4.15;1.20;;;21.70;70.50;;;;;;5009087;28;20546;-70
2022/06/09 13:32:20;;;;;;;4.55;1.00;;;21.80;72.10;;;;;;4991766;28;20215;-71
2022/06/09 13:34:48;;;;;;;2.67;0.90;;;21.90;69.20;;;;;;5006968;28;20044;-70
2022/06/09 13:37:37;;;;;;;4.78;1.38;;;22.00;66.30;;;;;;5007562;28;20057;-71
2022/06/09 13:40:14;;;;;;;3.00;1.23;;;22.10;65.70;;;;;;5009460;28;20033;-71